createdAt,value
2018-11-26T00:00:34.141Z,13.63
2018-11-26T00:03:02.761Z,13.47
2018-11-26T00:05:31.270Z,12.97
2018-11-26T00:07:59.806Z,13.30
2018-11-26T00:10:39.423Z,13.20
2018-11-26T00:13:07.959Z,13.57
2018-11-26T00:15:36.463Z,14.73
2018-11-26T00:18:05.397Z,14.73
2018-11-26T00:20:33.920Z,13.53
2018-11-26T00:23:02.437Z,14.53
2018-11-26T00:25:30.964Z,13.43
2018-11-26T00:27:59.848Z,13.97
2018-11-26T00:30:28.349Z,13.30
2018-11-26T00:32:56.925Z,14.40
2018-11-26T00:35:25.500Z,13.73
2018-11-26T00:37:54.439Z,13.63
2018-11-26T00:40:22.954Z,13.03
2018-11-26T00:42:51.414Z,14.17
2018-11-26T00:45:19.950Z,13.20
2018-11-26T00:47:48.449Z,13.80
2018-11-26T00:50:16.973Z,13.83
2018-11-26T00:52:45.507Z,13.53
2018-11-26T00:55:14.055Z,13.87
2018-11-26T00:57:42.523Z,15.03
2018-11-26T01:00:12.980Z,14.20
2018-11-26T01:02:41.494Z,14.50
2018-11-26T01:05:18.560Z,13.37
2018-11-26T01:07:47.054Z,13.90
2018-11-26T01:10:15.598Z,13.87
2018-11-26T01:12:44.078Z,14.43
2018-11-26T01:15:12.660Z,13.20
2018-11-26T01:17:41.202Z,13.80
2018-11-26T01:20:09.718Z,14.90
2018-11-26T01:22:38.199Z,13.77
2018-11-26T01:25:06.809Z,13.97
2018-11-26T01:27:35.359Z,13.43
2018-11-26T01:30:03.981Z,13.03
2018-11-26T01:32:32.482Z,13.47
2018-11-26T01:35:00.987Z,13.23
2018-11-26T01:37:29.504Z,13.40
2018-11-26T01:39:58.030Z,14.03
2018-11-26T01:42:26.526Z,13.13
2018-11-26T01:44:55.044Z,12.90
2018-11-26T01:47:23.576Z,13.30
2018-11-26T01:49:54.243Z,12.87
2018-11-26T01:52:23.690Z,12.17
2018-11-26T01:54:52.189Z,12.57
2018-11-26T01:57:20.672Z,12.17
2018-11-26T01:59:49.191Z,13.00
2018-11-26T02:02:17.671Z,13.03
2018-11-26T02:04:46.190Z,12.83
2018-11-26T02:07:14.698Z,13.00
2018-11-26T02:09:43.246Z,13.13
2018-11-26T02:12:11.777Z,12.17
2018-11-26T02:14:40.320Z,12.10
2018-11-26T02:17:08.795Z,12.77
2018-11-26T02:19:37.364Z,13.20
2018-11-26T02:22:05.846Z,11.80
2018-11-26T02:24:34.566Z,11.80
2018-11-26T02:27:03.106Z,12.77
2018-11-26T02:29:31.694Z,11.87
2018-11-26T02:32:00.226Z,12.33
2018-11-26T02:34:28.743Z,12.77
2018-11-26T02:36:57.262Z,12.63
2018-11-26T02:39:25.744Z,11.83
2018-11-26T02:41:54.262Z,12.67
2018-11-26T02:44:22.757Z,12.10
2018-11-26T02:46:51.287Z,11.67
2018-11-26T02:49:19.766Z,12.13
2018-11-26T02:51:48.266Z,12.13
2018-11-26T02:54:16.794Z,12.37
2018-11-26T02:56:45.309Z,12.30
2018-11-26T02:59:13.799Z,11.97
2018-11-26T03:01:42.353Z,12.93
2018-11-26T03:04:14.511Z,12.03
2018-11-26T03:06:43.239Z,12.17
2018-11-26T03:09:11.770Z,12.60
2018-11-26T03:11:40.302Z,12.10
2018-11-26T03:14:08.834Z,11.53
2018-11-26T03:16:37.384Z,12.47
2018-11-26T03:19:06.305Z,12.73
2018-11-26T03:21:34.856Z,13.23
2018-11-26T03:24:03.351Z,11.63
2018-11-26T03:26:31.860Z,12.13
2018-11-26T03:29:00.330Z,12.13
2018-11-26T03:31:28.856Z,12.97
2018-11-26T03:33:57.357Z,11.60
2018-11-26T03:36:25.885Z,11.80
2018-11-26T03:38:55.234Z,11.97
2018-11-26T03:41:24.190Z,12.97
2018-11-26T03:43:52.712Z,12.47
2018-11-26T03:46:21.214Z,12.03
2018-11-26T03:48:49.706Z,12.27
2018-11-26T03:51:18.286Z,12.93
2018-11-26T03:55:15.907Z,12.33
2018-11-26T03:57:44.430Z,12.47
2018-11-26T04:00:14.165Z,12.90
2018-11-26T04:02:42.720Z,13.67
2018-11-26T04:05:11.741Z,13.07
2018-11-26T04:07:40.439Z,13.67
2018-11-26T04:10:12.039Z,13.63
2018-11-26T04:12:40.790Z,13.53
2018-11-26T04:15:13.356Z,13.10
2018-11-26T04:17:41.906Z,12.63
2018-11-26T04:20:10.455Z,12.60
2018-11-26T04:22:38.974Z,13.37
2018-11-26T04:25:08.736Z,12.37
2018-11-26T04:27:37.265Z,12.83
2018-11-26T04:30:08.057Z,12.93
2018-11-26T04:34:01.015Z,12.83
2018-11-26T04:36:29.569Z,12.03
2018-11-26T04:38:58.077Z,12.33
2018-11-26T04:41:26.615Z,12.90
2018-11-26T04:43:55.094Z,13.00
2018-11-26T04:46:24.269Z,12.97
2018-11-26T04:48:52.875Z,13.60
2018-11-26T04:51:21.333Z,13.03
2018-11-26T04:53:49.850Z,11.77
2018-11-26T04:56:18.375Z,12.37
2018-11-26T04:58:46.937Z,12.37
2018-11-26T05:01:15.415Z,12.03
2018-11-26T05:03:43.946Z,12.13
2018-11-26T05:06:12.426Z,12.00
2018-11-26T05:08:40.951Z,13.00
2018-11-26T05:11:09.448Z,12.03
2018-11-26T05:13:37.995Z,11.83
2018-11-26T05:16:06.881Z,13.20
2018-11-26T05:18:35.423Z,11.77
2018-11-26T05:21:03.983Z,12.60
2018-11-26T05:23:32.565Z,12.63
2018-11-26T05:26:01.296Z,12.30
2018-11-26T05:28:29.833Z,12.30
2018-11-26T05:30:58.322Z,12.50
2018-11-26T05:33:26.848Z,12.83
2018-11-26T05:35:55.334Z,12.63
2018-11-26T05:38:23.878Z,13.17
2018-11-26T05:40:52.386Z,12.87
2018-11-26T05:43:20.907Z,12.10
2018-11-26T05:45:49.389Z,12.67
2018-11-26T05:48:17.915Z,12.40
2018-11-26T05:50:46.417Z,12.20
2018-11-26T05:53:14.941Z,12.83
2018-11-26T05:55:43.434Z,13.13
2018-11-26T05:58:11.930Z,13.23
2018-11-26T06:00:40.411Z,13.10
2018-11-26T06:03:08.935Z,13.50
2018-11-26T06:05:37.456Z,14.30
2018-11-26T06:08:06.473Z,14.63
2018-11-26T06:10:34.983Z,14.57
2018-11-26T06:13:03.513Z,14.50
2018-11-26T06:15:32.009Z,14.70
2018-11-26T06:18:00.556Z,14.73
2018-11-26T06:20:29.067Z,14.53
2018-11-26T06:22:57.586Z,14.93
2018-11-26T06:25:26.075Z,15.50
2018-11-26T06:27:54.631Z,15.70
2018-11-26T06:30:23.138Z,15.70
2018-11-26T06:32:51.605Z,16.27
2018-11-26T06:35:21.460Z,15.83
2018-11-26T06:37:49.969Z,17.00
2018-11-26T06:40:18.603Z,16.70
2018-11-26T06:42:47.122Z,17.20
2018-11-26T06:45:17.776Z,18.13
2018-11-26T06:47:46.257Z,17.77
2018-11-26T06:50:16.018Z,18.37
2018-11-26T06:52:44.681Z,17.37
2018-11-26T06:55:15.413Z,19.13
2018-11-26T06:57:43.892Z,18.57
2018-11-26T07:00:15.561Z,18.63
2018-11-26T07:02:44.411Z,19.20
2018-11-26T07:05:17.021Z,19.37
2018-11-26T07:07:48.365Z,18.70
2018-11-26T07:10:17.534Z,19.10
2018-11-26T07:12:46.006Z,19.03
2018-11-26T07:15:16.285Z,18.43
2018-11-26T07:17:44.810Z,18.73
2018-11-26T07:20:16.297Z,19.13
2018-11-26T07:22:44.853Z,19.27
2018-11-26T07:25:14.515Z,18.87
2018-11-26T07:27:43.925Z,18.73
2018-11-26T07:30:21.238Z,20.63
2018-11-26T07:32:49.690Z,18.77
2018-11-26T07:35:18.220Z,18.57
2018-11-26T07:37:46.718Z,18.63
2018-11-26T07:40:24.365Z,17.63
2018-11-26T07:42:55.146Z,16.57
2018-11-26T07:45:23.658Z,17.03
2018-11-26T07:47:52.154Z,17.80
2018-11-26T07:50:20.658Z,17.47
2018-11-26T07:52:49.141Z,17.43
2018-11-26T07:55:18.881Z,17.30
2018-11-26T07:57:47.367Z,17.73
2018-11-26T08:00:17.114Z,17.40
2018-11-26T08:02:45.965Z,18.00
2018-11-26T08:05:18.447Z,19.57
2018-11-26T08:07:46.997Z,18.50
2018-11-26T08:10:17.624Z,19.23
2018-11-26T08:12:46.903Z,18.97
2018-11-26T08:15:20.286Z,17.90
2018-11-26T08:17:48.781Z,18.83
2018-11-26T08:20:17.292Z,19.07
2018-11-26T08:22:45.870Z,18.67
2018-11-26T08:25:16.486Z,19.77
2018-11-26T08:27:45.984Z,20.20
2018-11-26T08:30:17.316Z,19.57
2018-11-26T08:32:47.962Z,19.63
2018-11-26T08:35:17.162Z,20.70
2018-11-26T08:37:50.971Z,20.70
2018-11-26T08:40:26.275Z,20.57
2018-11-26T08:43:15.370Z,20.60
2018-11-26T08:45:52.314Z,21.30
2018-11-26T08:48:25.991Z,21.77
2018-11-26T08:50:55.307Z,21.53
2018-11-26T08:53:23.995Z,22.70
2018-11-26T08:55:52.525Z,24.03
2018-11-26T08:58:21.047Z,24.03
2018-11-26T09:00:54.792Z,24.00
2018-11-26T09:03:23.318Z,24.30
2018-11-26T09:05:55.861Z,24.37
2018-11-26T09:08:24.338Z,24.30
2018-11-26T09:10:52.843Z,25.87
2018-11-26T09:13:21.325Z,23.23
2018-11-26T09:15:49.823Z,25.10
2018-11-26T09:18:18.330Z,24.27
2018-11-26T09:20:46.851Z,23.47
2018-11-26T09:23:15.346Z,23.10
2018-11-26T09:25:43.877Z,22.70
2018-11-26T09:28:12.673Z,24.30
2018-11-26T09:30:41.197Z,22.63
2018-11-26T09:33:09.704Z,24.73
2018-11-26T09:35:38.394Z,23.50
2018-11-26T09:38:06.963Z,23.63
2018-11-26T09:40:35.447Z,22.70
2018-11-26T09:43:03.998Z,23.67
2018-11-26T09:45:35.967Z,22.07
2018-11-26T09:48:01.054Z,22.73
2018-11-26T09:50:29.511Z,22.93
2018-11-26T09:52:58.035Z,23.37
2018-11-26T09:55:26.529Z,22.40
2018-11-26T09:57:55.027Z,22.00
2018-11-26T10:00:23.537Z,21.20
2018-11-26T10:02:52.752Z,20.73
2018-11-26T10:05:23.370Z,20.57
2018-11-26T10:07:51.895Z,19.57
2018-11-26T10:10:20.385Z,20.63
2018-11-26T10:12:48.870Z,20.30
2018-11-26T10:15:21.412Z,21.00
2018-11-26T10:17:49.985Z,21.33
2018-11-26T10:20:18.518Z,21.87
2018-11-26T10:22:47.462Z,21.83
2018-11-26T10:25:17.065Z,22.53
2018-11-26T10:27:45.599Z,21.83
2018-11-26T10:30:15.037Z,21.23
2018-11-26T10:32:44.017Z,21.33
2018-11-26T10:35:14.403Z,21.80
2018-11-26T10:37:43.004Z,22.10
2018-11-26T10:40:12.612Z,21.83
2018-11-26T10:42:41.190Z,22.77
2018-11-26T10:45:14.121Z,23.00
2018-11-26T10:47:42.739Z,24.23
2018-11-26T10:50:15.088Z,22.80
2018-11-26T10:52:44.686Z,22.40
2018-11-26T10:55:15.800Z,23.60
2018-11-26T10:57:44.490Z,23.83
2018-11-26T11:00:20.582Z,22.60
2018-11-26T11:02:49.471Z,23.07
2018-11-26T11:05:18.063Z,22.80
2018-11-26T11:07:46.730Z,22.80
2018-11-26T11:10:18.642Z,22.83
2018-11-26T11:12:47.166Z,23.00
2018-11-26T11:15:15.682Z,24.00
2018-11-26T11:17:44.307Z,24.80
2018-11-26T11:20:16.035Z,24.20
2018-11-26T11:22:44.647Z,24.30
2018-11-26T11:25:15.357Z,21.37
2018-11-26T11:27:44.941Z,22.63
2018-11-26T11:30:25.547Z,23.40
2018-11-26T11:32:53.857Z,23.37
2018-11-26T11:35:22.423Z,22.23
2018-11-26T11:37:51.631Z,23.67
2018-11-26T11:40:28.665Z,22.73
2018-11-26T11:42:57.835Z,22.40
2018-11-26T11:45:26.849Z,23.07
2018-11-26T11:47:55.415Z,22.00
2018-11-26T11:50:24.020Z,21.83
2018-11-26T11:52:52.616Z,23.13
2018-11-26T11:55:22.995Z,23.40
2018-11-26T11:57:52.057Z,24.50
2018-11-26T12:00:29.003Z,25.17
2018-11-26T12:02:57.585Z,24.73
2018-11-26T12:05:26.144Z,25.83
2018-11-26T12:07:54.699Z,25.07
2018-11-26T12:10:23.229Z,25.97
2018-11-26T12:12:51.858Z,25.63
2018-11-26T12:15:20.440Z,27.00
2018-11-26T12:17:50.486Z,26.53
2018-11-26T12:20:19.071Z,26.53
2018-11-26T12:22:47.580Z,26.70
2018-11-26T12:25:17.247Z,28.07
2018-11-26T12:27:45.841Z,31.37
2018-11-26T12:30:24.495Z,28.57
2018-11-26T12:32:53.040Z,29.13
2018-11-26T12:35:21.603Z,30.17
2018-11-26T12:37:50.286Z,31.83
2018-11-26T12:40:22.333Z,29.60
2018-11-26T12:42:52.248Z,29.57
2018-11-26T12:45:23.974Z,28.23
2018-11-26T12:47:52.698Z,29.27
2018-11-26T12:50:21.320Z,27.43
2018-11-26T12:52:49.947Z,29.47
2018-11-26T12:55:19.503Z,29.80
2018-11-26T12:57:49.076Z,28.77
2018-11-26T13:00:22.608Z,28.17
2018-11-26T13:02:56.584Z,28.53
2018-11-26T13:05:25.387Z,28.43
2018-11-26T13:07:55.218Z,28.20
2018-11-26T13:10:25.394Z,26.83
2018-11-26T13:12:54.188Z,27.70
2018-11-26T13:15:23.764Z,27.97
2018-11-26T13:17:52.309Z,29.27
2018-11-26T13:20:24.754Z,26.77
2018-11-26T13:22:53.609Z,27.70
2018-11-26T13:25:41.762Z,27.27
2018-11-26T13:28:08.507Z,26.77
2018-11-26T13:30:41.683Z,26.53
2018-11-26T13:33:13.678Z,27.30
2018-11-26T13:35:42.432Z,25.27
2018-11-26T13:38:11.008Z,25.17
2018-11-26T13:40:39.527Z,27.03
2018-11-26T13:43:09.916Z,25.77
2018-11-26T13:45:40.570Z,26.57
2018-11-26T13:48:10.377Z,24.93
2018-11-26T13:50:44.661Z,25.60
2018-11-26T13:53:13.963Z,24.97
2018-11-26T13:55:42.724Z,23.80
2018-11-26T13:58:11.231Z,23.10
2018-11-26T14:00:40.067Z,24.57
2018-11-26T14:03:08.933Z,23.37
2018-11-26T14:05:37.468Z,23.80
2018-11-26T14:08:06.090Z,24.40
2018-11-26T14:10:35.001Z,23.47
2018-11-26T14:13:10.120Z,23.93
2018-11-26T14:15:38.676Z,25.43
2018-11-26T14:18:12.606Z,28.20
2018-11-26T14:20:41.127Z,24.70
2018-11-26T14:23:09.698Z,26.83
2018-11-26T14:25:38.255Z,23.47
2018-11-26T14:28:06.769Z,24.60
2018-11-26T14:30:41.439Z,23.80
2018-11-26T14:33:10.580Z,22.73
2018-11-26T14:35:39.140Z,21.43
2018-11-26T14:38:09.365Z,21.80
2018-11-26T14:40:39.973Z,21.43
2018-11-26T14:43:08.784Z,21.03
2018-11-26T14:45:37.307Z,22.83
2018-11-26T14:48:06.291Z,22.37
2018-11-26T14:50:34.840Z,21.53
2018-11-26T14:53:06.266Z,22.97
2018-11-26T14:55:37.281Z,22.03
2018-11-26T14:58:06.039Z,21.00
2018-11-26T15:00:34.592Z,22.53
2018-11-26T15:03:03.143Z,21.57
2018-11-26T15:05:31.845Z,21.27
2018-11-26T15:08:00.362Z,21.87
2018-11-26T15:10:28.911Z,22.80
2018-11-26T15:12:57.561Z,21.97
2018-11-26T15:15:27.063Z,22.87
2018-11-26T15:17:55.608Z,21.87
2018-11-26T15:20:26.959Z,21.87
2018-11-26T15:22:56.523Z,23.63
2018-11-26T15:25:26.112Z,22.67
2018-11-26T15:28:05.322Z,22.83
2018-11-26T15:30:33.899Z,22.77
2018-11-26T15:33:02.431Z,22.10
2018-11-26T15:35:30.939Z,22.60
2018-11-26T15:37:59.496Z,23.13
2018-11-26T15:40:28.113Z,24.00
2018-11-26T15:42:56.604Z,23.53
2018-11-26T15:45:27.532Z,22.33
2018-11-26T15:47:58.437Z,23.00
2018-11-26T15:50:26.971Z,22.03
2018-11-26T15:52:55.501Z,23.40
2018-11-26T15:55:24.091Z,22.50
2018-11-26T15:57:52.619Z,22.60
2018-11-26T16:00:24.361Z,22.20
2018-11-26T16:02:53.262Z,23.00
2018-11-26T16:05:23.806Z,22.83
2018-11-26T16:07:52.613Z,22.77
2018-11-26T16:10:21.144Z,22.17
2018-11-26T16:12:51.476Z,22.30
2018-11-26T16:15:21.637Z,22.10
2018-11-26T16:17:50.700Z,23.63
2018-11-26T16:20:20.879Z,22.63
2018-11-26T16:22:50.017Z,22.30
2018-11-26T16:25:20.015Z,23.43
2018-11-26T16:27:48.531Z,23.80
2018-11-26T16:30:17.953Z,24.43
2018-11-26T16:32:51.842Z,24.83
2018-11-26T16:35:22.604Z,22.13
2018-11-26T16:37:51.115Z,23.67
2018-11-26T16:40:23.240Z,24.43
2018-11-26T16:42:52.067Z,23.43
2018-11-26T16:45:22.807Z,22.83
2018-11-26T16:47:52.455Z,24.60
2018-11-26T16:50:22.280Z,24.03
2018-11-26T16:52:51.732Z,21.40
2018-11-26T16:55:19.636Z,21.93
2018-11-26T16:57:48.163Z,23.17
2018-11-26T17:00:21.651Z,21.97
2018-11-26T17:02:51.457Z,29.90
2018-11-26T17:05:23.280Z,22.73
2018-11-26T17:07:51.809Z,22.73
2018-11-26T17:10:20.367Z,22.13
2018-11-26T17:12:48.855Z,22.27
2018-11-26T17:15:18.407Z,21.63
2018-11-26T17:17:46.998Z,21.63
2018-11-26T17:20:17.380Z,22.57
2018-11-26T17:22:45.904Z,21.90
2018-11-26T17:25:15.662Z,22.90
2018-11-26T17:27:44.744Z,22.77
2018-11-26T17:30:28.904Z,22.63
2018-11-26T17:33:00.403Z,22.33
2018-11-26T17:35:29.371Z,21.67
2018-11-26T17:37:57.899Z,21.90
2018-11-26T17:40:26.872Z,19.53
2018-11-26T17:42:55.764Z,22.23
2018-11-26T17:45:26.070Z,20.23
2018-11-26T17:47:56.809Z,20.70
2018-11-26T17:50:31.530Z,19.10
2018-11-26T17:53:00.035Z,19.53
2018-11-26T17:55:28.640Z,18.90
2018-11-26T17:57:57.204Z,20.53
2018-11-26T18:00:34.160Z,20.10
2018-11-26T18:03:03.234Z,19.17
2018-11-26T18:05:32.415Z,19.40
2018-11-26T18:08:13.404Z,19.33
2018-11-26T18:10:42.803Z,18.57
2018-11-26T18:13:11.300Z,18.30
2018-11-26T18:15:39.830Z,20.20
2018-11-26T18:18:13.135Z,20.00
2018-11-26T18:20:41.691Z,19.37
2018-11-26T18:23:10.785Z,19.83
2018-11-26T18:25:39.377Z,19.07
2018-11-26T18:28:10.139Z,19.20
2018-11-26T18:30:40.184Z,20.23
2018-11-26T18:33:08.742Z,19.07
2018-11-26T18:35:37.789Z,19.53
2018-11-26T18:38:07.260Z,18.57
2018-11-26T18:40:36.998Z,19.30
2018-11-26T18:43:07.454Z,18.30
2018-11-26T18:45:36.091Z,18.13
2018-11-26T18:48:04.636Z,17.47
2018-11-26T18:50:33.173Z,17.13
2018-11-26T18:53:01.652Z,16.67
2018-11-26T18:55:30.159Z,17.03
2018-11-26T18:57:58.656Z,16.93
2018-11-26T19:00:32.735Z,17.60
2018-11-26T19:03:01.239Z,17.60
2018-11-26T19:05:29.748Z,17.30
2018-11-26T19:07:58.248Z,16.90
2018-11-26T19:10:30.951Z,17.03
2018-11-26T19:13:03.324Z,17.07
2018-11-26T19:15:37.300Z,17.70
2018-11-26T19:18:15.711Z,16.27
2018-11-26T19:20:45.257Z,16.47
2018-11-26T19:23:13.759Z,16.47
2018-11-26T19:25:42.302Z,15.07
2018-11-26T19:28:10.793Z,15.53
2018-11-26T19:30:39.795Z,14.53
2018-11-26T19:33:09.312Z,16.43
2018-11-26T19:35:37.831Z,16.27
2018-11-26T19:38:07.562Z,15.10
2018-11-26T19:40:38.016Z,14.87
2018-11-26T19:43:07.402Z,16.27
2018-11-26T19:45:36.159Z,14.43
2018-11-26T19:48:05.071Z,16.00
2018-11-26T19:50:33.681Z,14.80
2018-11-26T19:53:02.403Z,14.77
2018-11-26T19:55:30.983Z,14.23
2018-11-26T19:57:59.576Z,14.33
2018-11-26T20:00:29.435Z,13.73
2018-11-26T20:03:17.598Z,14.47
2018-11-26T20:06:23.852Z,13.70
2018-11-26T20:08:54.346Z,14.20
2018-11-26T20:11:22.870Z,12.83
2018-11-26T20:13:51.352Z,14.57
2018-11-26T20:16:24.167Z,16.40
2018-11-26T20:18:52.642Z,13.67
2018-11-26T20:21:21.184Z,14.77
2018-11-26T20:23:49.663Z,14.10
2018-11-26T20:26:18.191Z,13.20
2018-11-26T20:28:46.676Z,14.20
2018-11-26T20:31:15.260Z,14.23
2018-11-26T20:33:43.791Z,14.37
2018-11-26T20:36:13.526Z,14.33
2018-11-26T20:38:42.024Z,13.83
2018-11-26T20:41:12.112Z,13.67
2018-11-26T20:43:40.853Z,13.10
2018-11-26T20:46:09.346Z,12.23
2018-11-26T20:48:37.878Z,12.33
2018-11-26T20:51:07.355Z,13.60
2018-11-26T20:53:36.218Z,12.10
2018-11-26T20:56:12.457Z,12.50
2018-11-26T20:58:41.030Z,15.80
2018-11-26T21:01:10.004Z,15.23
2018-11-26T21:03:38.543Z,15.90
2018-11-26T21:06:07.188Z,16.70
2018-11-26T21:08:35.718Z,16.63
2018-11-26T21:11:04.284Z,13.83
2018-11-26T21:13:38.223Z,14.40
2018-11-26T21:16:06.930Z,16.43
2018-11-26T21:18:35.488Z,17.37
2018-11-26T21:21:04.249Z,13.60
2018-11-26T21:23:33.695Z,12.77
2018-11-26T21:26:03.707Z,15.37
2018-11-26T21:28:32.235Z,16.20
2018-11-26T21:31:01.092Z,17.13
2018-11-26T21:33:29.322Z,22.03
2018-11-26T21:35:57.792Z,21.23
2018-11-26T21:38:26.302Z,17.83
2018-11-26T21:40:54.833Z,14.90
2018-11-26T21:43:23.383Z,16.17
2018-11-26T21:45:55.052Z,14.47
2018-11-26T21:48:23.568Z,16.40
2018-11-26T21:50:52.082Z,16.07
2018-11-26T21:53:20.743Z,14.30
2018-11-26T21:55:49.264Z,14.30
2018-11-26T21:58:17.783Z,13.83
2018-11-26T22:00:47.036Z,13.80
2018-11-26T22:03:15.833Z,14.20
2018-11-26T22:05:45.031Z,15.37
2018-11-26T22:08:13.792Z,16.83
2018-11-26T22:10:43.543Z,15.30
2018-11-26T22:13:13.584Z,15.37
2018-11-26T22:15:42.050Z,16.73
2018-11-26T22:18:10.569Z,15.93
2018-11-26T22:20:39.046Z,15.80
2018-11-26T22:23:08.532Z,15.50
2018-11-26T22:25:36.821Z,15.47
2018-11-26T22:28:06.841Z,16.37
2018-11-26T22:30:36.267Z,16.77
2018-11-26T22:33:04.827Z,16.53
2018-11-26T22:35:33.309Z,15.57
2018-11-26T22:38:01.819Z,19.67
2018-11-26T22:40:30.309Z,18.10
2018-11-26T22:42:58.836Z,17.80
2018-11-26T22:45:31.144Z,16.70
2018-11-26T22:48:14.352Z,18.57
2018-11-26T22:50:44.144Z,17.40
2018-11-26T22:53:12.768Z,17.40
2018-11-26T22:55:41.291Z,17.10
2018-11-26T22:58:11.148Z,17.83
2018-11-26T23:00:43.499Z,18.90
2018-11-26T23:03:14.823Z,17.23
2018-11-26T23:05:43.339Z,19.17
2018-11-26T23:08:11.874Z,17.57
2018-11-26T23:10:40.358Z,16.87
2018-11-26T23:13:09.510Z,18.80
2018-11-26T23:15:38.880Z,18.07
2018-11-26T23:18:07.337Z,18.30
2018-11-26T23:20:35.944Z,17.00
2018-11-26T23:23:04.456Z,19.23
2018-11-26T23:25:32.991Z,17.87
2018-11-26T23:28:01.456Z,16.90
2018-11-26T23:30:30.752Z,18.43
2018-11-26T23:33:01.154Z,17.83
2018-11-26T23:35:29.717Z,17.50
2018-11-26T23:37:58.263Z,17.47
2018-11-26T23:40:26.806Z,17.50
2018-11-26T23:42:55.312Z,17.77
2018-11-26T23:45:24.996Z,17.20
2018-11-26T23:47:53.487Z,17.47
2018-11-26T23:50:22.063Z,17.17
2018-11-26T23:52:50.570Z,16.57
2018-11-26T23:55:23.341Z,16.67
2018-11-26T23:57:51.863Z,17.00
